createdAt,value
2022-11-18T00:01:10.112Z,40.50
2022-11-18T00:03:38.393Z,42.42
2022-11-18T00:06:06.222Z,44.00
2022-11-18T00:08:33.344Z,40.92
2022-11-18T00:11:09.094Z,41.95
2022-11-18T00:13:56.446Z,42.22
2022-11-18T00:16:24.055Z,39.25
2022-11-18T00:18:51.285Z,44.80
2022-11-18T00:21:17.977Z,42.58
2022-11-18T00:23:44.661Z,41.88
2022-11-18T00:26:13.320Z,37.67
2022-11-18T00:28:40.651Z,40.58
2022-11-18T00:31:11.052Z,40.05
2022-11-18T00:33:38.303Z,41.38
2022-11-18T00:36:06.672Z,38.35
2022-11-18T00:38:33.880Z,43.25
2022-11-18T00:41:12.326Z,40.47
2022-11-18T00:43:39.640Z,37.00
2022-11-18T00:46:08.530Z,41.70
2022-11-18T00:48:35.465Z,40.88
2022-11-18T00:51:10.793Z,41.85
2022-11-18T00:53:37.504Z,41.47
2022-11-18T00:56:04.507Z,42.00
2022-11-18T00:58:31.521Z,46.15
2022-11-18T01:00:58.277Z,43.15
2022-11-18T01:03:25.622Z,43.38
2022-11-18T01:05:52.684Z,41.35
2022-11-18T01:08:19.734Z,38.65
2022-11-18T01:10:47.914Z,42.13
2022-11-18T01:13:20.721Z,41.60
2022-11-18T01:15:49.537Z,41.45
2022-11-18T01:18:18.407Z,46.45
2022-11-18T01:20:46.334Z,43.58
2022-11-18T01:23:13.301Z,38.08
2022-11-18T01:25:42.212Z,37.90
2022-11-18T01:28:09.893Z,42.80
2022-11-18T01:30:38.532Z,38.83
2022-11-18T01:33:06.186Z,43.15
2022-11-18T01:35:36.634Z,41.42
2022-11-18T01:38:04.474Z,40.70
2022-11-18T01:40:31.785Z,42.08
2022-11-18T01:42:58.631Z,42.58
2022-11-18T01:45:50.635Z,39.40
2022-11-18T01:48:25.815Z,40.58
2022-11-18T01:50:58.009Z,46.28
2022-11-18T01:53:33.809Z,41.83
2022-11-18T01:56:12.712Z,41.42
2022-11-18T01:58:44.840Z,38.95
2022-11-18T02:01:11.827Z,41.60
2022-11-18T02:03:38.851Z,42.97
2022-11-18T02:06:07.942Z,39.03
2022-11-18T02:08:37.584Z,41.95
2022-11-18T02:11:05.043Z,40.25
2022-11-18T02:13:32.501Z,41.60
2022-11-18T02:16:11.496Z,40.08
2022-11-18T02:19:00.375Z,45.78
2022-11-18T02:21:57.704Z,45.47
2022-11-18T02:24:28.040Z,44.95
2022-11-18T02:27:23.983Z,43.92
2022-11-18T02:30:05.609Z,43.40
2022-11-18T02:32:54.062Z,43.92
2022-11-18T02:35:43.325Z,42.15
2022-11-18T02:38:24.788Z,44.20
2022-11-18T02:41:09.561Z,40.97
2022-11-18T02:43:47.619Z,44.63
2022-11-18T02:46:19.013Z,44.38
2022-11-18T02:48:50.254Z,41.33
2022-11-18T02:51:21.880Z,42.55
2022-11-18T02:53:50.403Z,40.83
2022-11-18T02:56:18.989Z,42.70
2022-11-18T02:58:45.728Z,42.38
2022-11-18T03:01:21.238Z,47.38
2022-11-18T03:06:32.240Z,42.78
2022-11-18T03:09:05.120Z,43.50
2022-11-18T03:11:39.750Z,43.10
2022-11-18T03:14:06.649Z,47.88
2022-11-18T03:16:41.422Z,44.55
2022-11-18T03:19:22.483Z,42.47
2022-11-18T03:22:16.783Z,45.15
2022-11-18T03:25:08.920Z,41.10
2022-11-18T03:28:05.590Z,45.58
2022-11-18T03:30:35.560Z,44.10
2022-11-18T03:33:10.852Z,43.88
2022-11-18T03:35:42.719Z,47.60
2022-11-18T03:38:14.677Z,44.85
2022-11-18T03:40:46.860Z,46.08
2022-11-18T03:43:18.764Z,46.92
2022-11-18T03:45:52.734Z,50.33
2022-11-18T03:48:24.305Z,44.58
2022-11-18T03:51:09.537Z,48.85
2022-11-18T03:53:40.399Z,44.60
2022-11-18T03:56:17.207Z,41.33
2022-11-18T03:59:02.894Z,44.80
2022-11-18T04:01:37.661Z,42.87
2022-11-18T04:04:04.991Z,44.67
2022-11-18T04:06:41.116Z,47.50
2022-11-18T04:09:15.380Z,43.95
2022-11-18T04:12:02.618Z,41.78
2022-11-18T04:14:37.748Z,44.70
2022-11-18T04:17:13.356Z,49.80
2022-11-18T04:22:07.861Z,44.67
2022-11-18T04:24:34.770Z,47.40
2022-11-18T04:27:02.585Z,44.90
2022-11-18T04:29:30.579Z,44.58
2022-11-18T04:31:57.569Z,46.47
2022-11-18T04:34:24.295Z,43.13
2022-11-18T04:36:51.246Z,41.30
2022-11-18T04:39:21.065Z,46.85
2022-11-18T04:41:56.911Z,44.75
2022-11-18T04:44:32.183Z,49.00
2022-11-18T04:47:01.606Z,46.08
2022-11-18T04:49:29.216Z,43.80
2022-11-18T04:51:56.744Z,45.65
2022-11-18T04:54:24.623Z,47.92
2022-11-18T04:56:51.710Z,50.28
2022-11-18T04:59:21.104Z,49.83
2022-11-18T05:01:49.095Z,47.65
2022-11-18T05:04:18.537Z,50.40
2022-11-18T05:06:45.781Z,51.63
2022-11-18T05:09:12.717Z,47.85
2022-11-18T05:11:58.264Z,52.80
2022-11-18T05:14:29.027Z,55.72
2022-11-18T05:16:57.614Z,50.38
2022-11-18T05:19:25.270Z,56.72
2022-11-18T05:21:51.992Z,50.40
2022-11-18T05:24:18.921Z,49.63
2022-11-18T05:26:46.294Z,51.05
2022-11-18T05:29:13.194Z,48.40
2022-11-18T05:31:39.964Z,49.65
2022-11-18T05:34:06.811Z,53.33
2022-11-18T05:36:33.424Z,48.88
2022-11-18T05:39:00.865Z,47.78
2022-11-18T05:41:46.159Z,50.63
2022-11-18T05:44:12.910Z,53.95
2022-11-18T05:46:39.876Z,60.80
2022-11-18T05:49:07.871Z,55.30
2022-11-18T05:51:35.353Z,50.50
2022-11-18T05:54:07.289Z,54.15
2022-11-18T05:56:40.775Z,50.20
2022-11-18T05:59:07.796Z,56.13
2022-11-18T06:01:49.339Z,51.00
2022-11-18T06:04:22.048Z,54.17
2022-11-18T06:06:51.731Z,53.13
2022-11-18T06:09:24.032Z,54.38
2022-11-18T06:11:55.297Z,54.92
2022-11-18T06:14:37.750Z,59.22
2022-11-18T06:17:08.758Z,59.67
2022-11-18T06:19:35.540Z,56.25
2022-11-18T06:22:03.436Z,54.15
2022-11-18T06:24:30.296Z,53.17
2022-11-18T06:26:59.106Z,51.83
2022-11-18T06:29:27.861Z,60.38
2022-11-18T06:31:55.080Z,56.20
2022-11-18T06:34:21.992Z,49.53
2022-11-18T06:36:48.715Z,54.17
2022-11-18T06:39:15.855Z,53.58
2022-11-18T06:41:42.681Z,56.45
2022-11-18T06:44:11.823Z,79.55
2022-11-18T06:46:57.173Z,57.22
2022-11-18T06:49:28.138Z,52.60
2022-11-18T06:51:55.177Z,53.63
2022-11-18T06:54:22.575Z,49.10
2022-11-18T06:56:49.459Z,52.45
2022-11-18T06:59:22.150Z,57.90
2022-11-18T07:01:49.217Z,56.88
2022-11-18T07:04:16.034Z,61.03
2022-11-18T07:06:42.753Z,60.17
2022-11-18T07:09:09.704Z,59.47
2022-11-18T07:11:38.220Z,57.95
2022-11-18T07:14:04.892Z,58.40
2022-11-18T07:16:31.631Z,58.83
2022-11-18T07:18:58.384Z,60.30
2022-11-18T07:21:28.118Z,61.08
2022-11-18T07:23:56.151Z,61.92
2022-11-18T07:26:23.067Z,51.80
2022-11-18T07:28:49.853Z,56.15
2022-11-18T07:31:19.600Z,63.55
2022-11-18T07:33:47.656Z,64.13
2022-11-18T07:36:20.064Z,60.45
2022-11-18T07:38:47.638Z,73.28
2022-11-18T07:41:17.672Z,71.55
2022-11-18T07:43:44.976Z,72.43
2022-11-18T07:46:20.552Z,76.72
2022-11-18T07:51:16.385Z,80.35
2022-11-18T07:53:43.764Z,69.60
2022-11-18T07:56:11.161Z,64.70
2022-11-18T07:58:37.972Z,70.90
2022-11-18T08:01:14.207Z,72.38
2022-11-18T08:03:41.480Z,76.28
2022-11-18T08:06:09.654Z,77.10
2022-11-18T08:08:36.926Z,77.75
2022-11-18T08:11:06.585Z,80.82
2022-11-18T08:13:33.914Z,83.13
2022-11-18T08:16:01.092Z,72.90
2022-11-18T08:18:32.450Z,75.85
2022-11-18T08:21:05.864Z,85.18
2022-11-18T08:23:37.395Z,77.97
2022-11-18T08:26:08.714Z,81.05
2022-11-18T08:28:35.794Z,83.00
2022-11-18T08:31:17.347Z,71.75
2022-11-18T08:33:44.457Z,80.50
2022-11-18T08:36:18.374Z,77.28
2022-11-18T08:38:45.503Z,67.82
2022-11-18T08:41:18.913Z,66.57
2022-11-18T08:43:45.721Z,66.00
2022-11-18T08:46:12.496Z,70.90
2022-11-18T08:48:39.214Z,89.25
2022-11-18T08:51:06.406Z,68.50
2022-11-18T08:53:33.393Z,63.63
2022-11-18T08:56:01.255Z,60.05
2022-11-18T08:58:28.492Z,59.70
2022-11-18T09:00:55.304Z,62.53
2022-11-18T09:03:22.202Z,57.88
2022-11-18T09:05:50.062Z,60.55
2022-11-18T09:08:17.069Z,58.67
2022-11-18T09:10:43.804Z,58.38
2022-11-18T09:13:40.295Z,54.33
2022-11-18T09:16:00.861Z,59.70
2022-11-18T09:18:28.031Z,55.47
2022-11-18T09:21:00.045Z,59.85
2022-11-18T09:23:27.423Z,51.90
2022-11-18T09:26:06.052Z,60.15
2022-11-18T09:28:33.564Z,52.15
2022-11-18T09:31:08.349Z,53.38
2022-11-18T09:33:36.732Z,48.90
2022-11-18T09:36:04.624Z,57.13
2022-11-18T09:38:32.488Z,50.85
2022-11-18T09:41:15.926Z,48.10
2022-11-18T09:44:06.487Z,52.75
2022-11-18T09:46:57.571Z,54.67
2022-11-18T09:49:37.183Z,55.58
2022-11-18T09:52:29.178Z,58.53
2022-11-18T09:55:00.404Z,50.73
2022-11-18T09:57:38.702Z,54.33
2022-11-18T10:00:22.365Z,49.92
2022-11-18T10:02:58.378Z,48.78
2022-11-18T10:05:28.436Z,54.38
2022-11-18T10:08:02.138Z,54.38
2022-11-18T10:10:38.092Z,58.28
2022-11-18T10:13:17.651Z,56.90
2022-11-18T10:16:00.333Z,58.45
2022-11-18T10:19:08.676Z,60.80
2022-11-18T10:21:47.394Z,61.95
2022-11-18T10:24:21.012Z,57.78
2022-11-18T10:26:54.410Z,57.95
2022-11-18T10:29:21.985Z,52.40
2022-11-18T10:32:05.621Z,50.45
2022-11-18T10:34:34.099Z,51.63
2022-11-18T10:37:02.912Z,51.53
2022-11-18T10:39:30.409Z,53.03
2022-11-18T10:42:07.519Z,47.53
2022-11-18T10:44:40.336Z,50.85
2022-11-18T10:47:26.196Z,48.05
2022-11-18T10:49:55.393Z,54.63
2022-11-18T10:52:22.287Z,42.20
2022-11-18T10:55:11.856Z,46.45
2022-11-18T10:57:43.528Z,47.72
2022-11-18T11:00:34.296Z,43.03
2022-11-18T11:03:14.257Z,36.90
2022-11-18T11:05:41.108Z,31.08
2022-11-18T11:08:36.363Z,35.58
2022-11-18T11:11:04.337Z,29.25
2022-11-18T11:13:32.438Z,25.50
2022-11-18T11:16:03.388Z,25.23
2022-11-18T11:18:43.461Z,24.48
2022-11-18T11:21:20.017Z,24.13
2022-11-18T11:23:47.108Z,23.95
2022-11-18T11:29:27.689Z,24.50
2022-11-18T11:32:28.722Z,27.02
2022-11-18T11:35:13.752Z,23.08
2022-11-18T11:37:58.220Z,28.65
2022-11-18T11:41:02.712Z,23.50
2022-11-18T11:43:39.473Z,23.92
2022-11-18T11:46:18.758Z,24.02
2022-11-18T11:49:32.791Z,18.55
2022-11-18T11:52:41.404Z,21.20
2022-11-18T11:55:28.378Z,24.30
2022-11-18T11:58:18.145Z,20.88
2022-11-18T12:00:56.143Z,24.73
2022-11-18T12:03:51.626Z,22.45
2022-11-18T12:06:19.254Z,24.15
2022-11-18T12:08:59.276Z,20.05
2022-11-18T12:11:46.728Z,20.45
2022-11-18T12:14:22.159Z,19.60
2022-11-18T12:17:19.157Z,20.20
2022-11-18T12:19:45.940Z,19.17
2022-11-18T12:22:12.714Z,17.80
2022-11-18T12:24:42.406Z,17.15
2022-11-18T12:27:14.059Z,18.55
2022-11-18T12:29:55.230Z,20.20
2022-11-18T12:32:45.325Z,18.77
2022-11-18T12:35:11.999Z,19.60
2022-11-18T12:38:04.910Z,21.67
2022-11-18T12:40:34.312Z,15.27
2022-11-18T12:43:22.364Z,19.27
2022-11-18T12:45:51.343Z,18.77
2022-11-18T12:48:27.277Z,17.52
2022-11-18T12:51:00.716Z,19.20
2022-11-18T12:53:38.605Z,19.50
2022-11-18T12:56:17.566Z,14.57
2022-11-18T12:58:48.029Z,18.30
2022-11-18T13:01:18.165Z,19.05
2022-11-18T13:03:45.325Z,14.48
2022-11-18T13:06:20.615Z,14.27
2022-11-18T13:08:57.891Z,20.42
2022-11-18T13:11:44.944Z,17.98
2022-11-18T13:14:37.051Z,18.20
2022-11-18T13:17:51.925Z,16.85
2022-11-18T13:20:23.348Z,19.80
2022-11-18T13:23:21.148Z,17.50
2022-11-18T13:25:49.521Z,19.98
2022-11-18T13:28:43.009Z,21.10
2022-11-18T13:31:44.085Z,19.70
2022-11-18T13:34:25.586Z,98.65
2022-11-18T13:36:54.037Z,24.52
2022-11-18T13:39:32.956Z,18.02
2022-11-18T13:42:05.559Z,22.88
2022-11-18T13:44:35.260Z,18.98
2022-11-18T13:47:23.725Z,16.52
2022-11-18T13:50:10.768Z,17.40
2022-11-18T13:52:45.093Z,18.15
2022-11-18T13:55:25.197Z,16.58
2022-11-18T13:58:00.515Z,20.08
2022-11-18T14:00:30.175Z,14.05
2022-11-18T14:03:02.022Z,17.75
2022-11-18T14:05:28.970Z,14.52
2022-11-18T14:08:06.355Z,16.55
2022-11-18T14:10:44.946Z,17.88
2022-11-18T14:13:33.250Z,15.95
2022-11-18T14:16:02.685Z,21.40
2022-11-18T14:18:33.756Z,24.40
2022-11-18T14:21:02.470Z,19.95
2022-11-18T14:23:32.030Z,22.77
2022-11-18T14:26:00.606Z,29.42
2022-11-18T14:28:30.582Z,29.25
2022-11-18T14:31:17.246Z,31.17
2022-11-18T14:34:21.910Z,29.63
2022-11-18T14:36:50.678Z,38.08
2022-11-18T14:39:32.513Z,31.23
2022-11-18T14:42:00.192Z,30.77
2022-11-18T14:44:27.816Z,33.45
2022-11-18T14:47:01.949Z,32.67
2022-11-18T14:49:31.460Z,31.35
2022-11-18T14:51:59.164Z,32.17
2022-11-18T14:54:28.116Z,30.60
2022-11-18T14:57:00.072Z,35.33
2022-11-18T14:59:27.489Z,34.65
2022-11-18T15:01:54.850Z,32.83
2022-11-18T15:04:22.053Z,32.60
2022-11-18T15:06:49.381Z,34.22
2022-11-18T15:09:16.485Z,38.83
2022-11-18T15:11:43.252Z,32.05
2022-11-18T15:14:09.961Z,34.33
2022-11-18T15:16:36.701Z,30.27
2022-11-18T15:19:05.530Z,33.25
2022-11-18T15:21:33.032Z,33.15
2022-11-18T15:23:59.883Z,33.75
2022-11-18T15:26:28.847Z,30.85
2022-11-18T15:28:57.055Z,32.42
2022-11-18T15:31:25.009Z,31.73
2022-11-18T15:33:51.945Z,34.30
2022-11-18T15:36:24.295Z,33.08
2022-11-18T15:38:52.208Z,41.65
2022-11-18T15:41:23.126Z,33.47
2022-11-18T15:43:51.250Z,38.15
2022-11-18T15:46:19.893Z,34.95
2022-11-18T15:48:48.361Z,34.55
2022-11-18T15:51:15.481Z,31.15
2022-11-18T15:53:42.206Z,35.17
2022-11-18T15:56:18.569Z,31.70
2022-11-18T15:58:51.459Z,31.98
2022-11-18T16:01:19.196Z,27.65
2022-11-18T16:03:45.926Z,29.77
2022-11-18T16:06:12.650Z,33.92
2022-11-18T16:08:39.446Z,38.53
2022-11-18T16:11:24.565Z,34.63
2022-11-18T16:13:51.420Z,31.67
2022-11-18T16:16:23.214Z,36.95
2022-11-18T16:18:49.950Z,35.25
2022-11-18T16:21:16.709Z,32.67
2022-11-18T16:23:43.447Z,37.65
2022-11-18T16:26:10.062Z,33.45
2022-11-18T16:28:36.716Z,34.33
2022-11-18T16:31:22.123Z,32.25
2022-11-18T16:33:48.822Z,34.50
2022-11-18T16:36:15.655Z,37.90
2022-11-18T16:38:43.003Z,32.97
2022-11-18T16:41:28.891Z,34.60
2022-11-18T16:43:55.869Z,31.55
2022-11-18T16:46:22.576Z,26.60
2022-11-18T16:48:49.574Z,28.38
2022-11-18T16:51:17.124Z,25.70
2022-11-18T16:53:44.017Z,27.85
2022-11-18T16:56:10.727Z,30.73
2022-11-18T16:58:37.327Z,31.00
2022-11-18T17:01:23.454Z,29.65
2022-11-18T17:03:54.286Z,27.83
2022-11-18T17:06:25.030Z,30.17
2022-11-18T17:08:52.208Z,28.67
2022-11-18T17:11:19.458Z,29.23
2022-11-18T17:13:46.500Z,28.58
2022-11-18T17:16:16.021Z,25.67
2022-11-18T17:18:43.542Z,26.52
2022-11-18T17:21:12.780Z,29.20
2022-11-18T17:23:40.893Z,24.73
2022-11-18T17:26:08.665Z,26.95
2022-11-18T17:28:36.738Z,30.60
2022-11-18T17:31:08.348Z,31.30
2022-11-18T17:33:35.345Z,26.02
2022-11-18T17:36:06.251Z,28.42
2022-11-18T17:38:35.496Z,29.38
2022-11-18T17:41:02.227Z,29.20
2022-11-18T17:43:29.197Z,32.30
2022-11-18T17:45:58.138Z,27.85
2022-11-18T17:48:26.805Z,23.17
2022-11-18T17:50:53.958Z,25.38
2022-11-18T17:53:21.042Z,24.33
2022-11-18T17:55:47.831Z,23.75
2022-11-18T17:58:14.825Z,24.02
2022-11-18T18:00:41.562Z,21.10
2022-11-18T18:03:08.334Z,21.77
2022-11-18T18:05:35.078Z,18.77
2022-11-18T18:08:04.358Z,23.23
2022-11-18T18:10:31.334Z,19.27
2022-11-18T18:13:16.676Z,20.08
2022-11-18T18:15:43.421Z,17.00
2022-11-18T18:18:10.114Z,19.95
2022-11-18T18:20:36.835Z,15.90
2022-11-18T18:23:03.552Z,13.88
2022-11-18T18:25:30.471Z,13.35
2022-11-18T18:27:57.288Z,13.13
2022-11-18T18:30:24.039Z,14.65
2022-11-18T18:32:52.597Z,12.25
2022-11-18T18:35:19.486Z,10.50
2022-11-18T18:37:46.234Z,7.95
2022-11-18T18:40:13.754Z,9.40
2022-11-18T18:42:40.616Z,8.98
2022-11-18T18:45:27.251Z,9.52
2022-11-18T18:47:54.149Z,10.48
2022-11-18T18:50:25.061Z,12.48
2022-11-18T18:52:55.053Z,8.27
2022-11-18T18:55:22.027Z,6.82
2022-11-18T18:57:48.719Z,6.50
2022-11-18T19:00:15.730Z,6.85
2022-11-18T19:02:42.490Z,5.95
2022-11-18T19:05:09.344Z,8.65
2022-11-18T19:07:36.020Z,7.25
2022-11-18T19:10:05.625Z,6.13
2022-11-18T19:12:44.330Z,5.40
2022-11-18T19:15:11.777Z,8.25
2022-11-18T19:17:38.809Z,4.75
2022-11-18T19:20:25.033Z,6.25
2022-11-18T19:22:52.182Z,5.93
2022-11-18T19:25:18.941Z,8.73
2022-11-18T19:27:45.647Z,6.68
2022-11-18T19:30:13.356Z,6.43
2022-11-18T19:32:41.527Z,5.97
2022-11-18T19:35:09.684Z,5.82
2022-11-18T19:37:37.245Z,4.80
2022-11-18T19:40:08.898Z,7.78
2022-11-18T19:42:37.770Z,6.95
2022-11-18T19:45:05.627Z,6.03
2022-11-18T19:47:32.698Z,4.90
2022-11-18T19:49:59.822Z,5.80
2022-11-18T19:52:26.530Z,5.75
2022-11-18T19:54:53.352Z,3.80
2022-11-18T19:57:20.276Z,5.75
2022-11-18T19:59:46.929Z,6.28
2022-11-18T20:02:13.765Z,3.60
2022-11-18T20:04:40.571Z,3.75
2022-11-18T20:07:07.698Z,3.83
2022-11-18T20:09:34.428Z,5.18
2022-11-18T20:12:01.169Z,5.50
2022-11-18T20:14:27.886Z,5.50
2022-11-18T20:16:54.640Z,6.18
2022-11-18T20:19:21.558Z,3.78
2022-11-18T20:21:49.334Z,5.93
2022-11-18T20:24:17.754Z,6.35
2022-11-18T20:26:44.965Z,6.90
2022-11-18T20:29:12.353Z,4.47
2022-11-18T20:31:39.135Z,6.25
2022-11-18T20:34:06.112Z,7.10
2022-11-18T20:36:35.724Z,6.93
2022-11-18T20:39:07.148Z,8.75
2022-11-18T20:41:34.976Z,4.63
2022-11-18T20:44:01.790Z,4.32
2022-11-18T20:46:28.952Z,4.07
2022-11-18T20:48:55.767Z,5.78
2022-11-18T20:51:24.926Z,5.15
2022-11-18T20:53:53.345Z,4.75
2022-11-18T20:56:22.501Z,3.92
2022-11-18T20:58:49.875Z,5.63
2022-11-18T21:01:25.510Z,4.00
2022-11-18T21:06:22.211Z,4.40
2022-11-18T21:08:49.254Z,6.55
2022-11-18T21:11:16.384Z,4.15
2022-11-18T21:14:01.731Z,5.63
2022-11-18T21:16:28.518Z,4.82
2022-11-18T21:18:55.253Z,6.63
2022-11-18T21:21:40.862Z,6.60
2022-11-18T21:24:08.392Z,4.35
2022-11-18T21:26:36.177Z,6.15
2022-11-18T21:29:05.141Z,5.25
2022-11-18T21:31:32.305Z,5.20
2022-11-18T21:33:59.326Z,6.80
2022-11-18T21:36:27.684Z,9.23
2022-11-18T21:38:56.347Z,8.43
2022-11-18T21:41:23.041Z,6.47
2022-11-18T21:44:05.108Z,8.35
2022-11-18T21:46:34.164Z,6.75
2022-11-18T21:49:00.969Z,9.30
2022-11-18T21:51:28.097Z,7.90
2022-11-18T21:53:54.849Z,9.48
2022-11-18T21:56:24.951Z,8.60
2022-11-18T21:58:52.676Z,8.88
2022-11-18T22:01:23.337Z,8.38
2022-11-18T22:03:55.597Z,7.57
2022-11-18T22:06:24.495Z,9.07
2022-11-18T22:08:52.319Z,8.45
2022-11-18T22:11:22.773Z,9.98
2022-11-18T22:13:51.760Z,7.90
2022-11-18T22:16:20.690Z,7.90
2022-11-18T22:18:54.712Z,9.80
2022-11-18T22:23:50.034Z,12.18
2022-11-18T22:26:19.377Z,7.97
2022-11-18T22:28:47.339Z,10.73
2022-11-18T22:31:22.259Z,8.38
2022-11-18T22:33:50.286Z,13.30
2022-11-18T22:36:19.780Z,11.45
2022-11-18T22:38:46.854Z,9.68
2022-11-18T22:41:36.891Z,7.80
2022-11-18T22:44:07.792Z,8.82
2022-11-18T22:46:39.719Z,11.70
2022-11-18T22:49:09.484Z,8.45
2022-11-18T22:51:37.647Z,10.90
2022-11-18T22:54:36.377Z,12.07
2022-11-18T22:56:54.211Z,13.25
2022-11-18T22:59:21.561Z,13.02
2022-11-18T23:01:51.110Z,12.05
2022-11-18T23:04:17.934Z,11.40
2022-11-18T23:06:44.582Z,10.98
2022-11-18T23:09:11.548Z,12.85
2022-11-18T23:11:56.987Z,11.70
2022-11-18T23:14:23.827Z,16.95
2022-11-18T23:16:50.587Z,8.57
2022-11-18T23:19:18.315Z,8.20
2022-11-18T23:21:45.792Z,14.05
2022-11-18T23:24:14.390Z,11.40
2022-11-18T23:26:42.226Z,9.75
2022-11-18T23:29:10.435Z,9.98
2022-11-18T23:31:40.038Z,10.27
2022-11-18T23:34:06.967Z,10.02
2022-11-18T23:36:33.669Z,10.90
2022-11-18T23:39:00.342Z,11.30
2022-11-18T23:41:27.216Z,8.68
2022-11-18T23:43:54.176Z,11.30
2022-11-18T23:46:21.739Z,12.05
2022-11-18T23:48:48.935Z,9.32
2022-11-18T23:51:17.928Z,7.55
2022-11-18T23:53:45.877Z,15.30
2022-11-18T23:56:18.055Z,9.27
2022-11-18T23:58:47.205Z,11.15
